Savoy, Illinois
Current Conditions -  °F | °C
As of 12:53 PM on Friday 31 Oct 2014 (Local Time) from KCMI Reporting Station
Overcast Overcast  
Wind Chill: 30°   Ceiling: 4200
Heat Index: 41°   Visibility: 10mi
Dew Point: 27°   Wind: 26mph
Humidity: 57%   Direction: 330°NNW
Pressure: 30.15"   Gusts: 38mph
Location:  40.05°N, 88.25°W
Report Text: KCMI 311753Z 33023G33KT 10SM OVC042 05/M03 A3015 RMK AO2 PK WND 34034/1737 SLP214 T00501028 10056 20022 51004 $
Loading
Personal Weather Stations






























Interactive Weather Map
Tropical Storm Tracking
New forecast layout! Learn more

10-Day Weather Forecast

Advertisements
Track Severe Weather on mobile